Time;durP1;ratioP1;P1;durP2;ratioP2;P2;SDS_P1;SDS_P2;PMS_P1;PMS_P2;Temp;Humidity;BMP_temperature;BMP_pressure;BME280_temperature;BME280_humidity;BME280_pressure;Samples;Min_cycle;Max_cycle;Signal;HPM_P1;HPM_P2
2021/03/22 00:01:44;;;;;;;32.33;10.77;;;;;;;-0.76;78.08;98864.44;123482;1102;64917;-87
2021/03/22 00:04:11;;;;;;;26.90;11.67;;;;;;;-0.80;77.54;98865.45;123428;1102;65374;-88
2021/03/22 00:06:37;;;;;;;24.80;10.43;;;;;;;-0.84;76.79;98865.52;123528;1103;64863;-88
2021/03/22 00:09:04;;;;;;;22.40;10.33;;;;;;;-0.85;77.48;98869.05;123521;1102;64978;-88
2021/03/22 00:11:30;;;;;;;20.47;10.23;;;;;;;-0.87;77.66;98881.36;123877;1102;64896;-86
2021/03/22 00:13:57;;;;;;;30.50;12.30;;;;;;;-0.86;77.56;98875.20;123836;1102;64977;-89
2021/03/22 00:16:24;;;;;;;25.43;8.70;;;;;;;-0.81;77.92;98882.95;123839;1102;65029;-89
2021/03/22 00:18:51;;;;;;;38.70;13.27;;;;;;;-0.78;77.33;98876.74;123494;1102;64927;-90
2021/03/22 00:21:18;;;;;;;22.40;9.30;;;;;;;-0.75;77.79;98887.16;123481;1105;64995;-87
2021/03/22 00:23:45;;;;;;;35.67;12.53;;;;;;;-0.74;78.37;98886.25;123859;1102;64899;-86
2021/03/22 00:26:11;;;;;;;36.95;12.80;;;;;;;-0.75;77.90;98885.39;123891;1102;65001;-90
2021/03/22 00:28:41;;;;;;;28.57;11.50;;;;;;;-0.76;78.14;98890.66;123821;1102;65175;-87
2021/03/22 00:31:11;;;;;;;46.33;14.17;;;;;;;-0.79;77.46;98885.52;123883;1102;65359;-87
2021/03/22 00:33:39;;;;;;;39.70;12.10;;;;;;;-0.82;77.92;98889.95;123823;1102;65036;-87
2021/03/22 00:36:06;;;;;;;42.90;13.80;;;;;;;-0.80;76.88;98889.05;123846;1102;64934;-91
2021/03/22 00:38:33;;;;;;;32.30;11.50;;;;;;;-0.82;77.09;98897.82;123885;1102;65026;-88
2021/03/22 00:41:00;;;;;;;33.30;10.63;;;;;;;-0.83;77.17;98890.87;123822;1102;64988;-86
2021/03/22 00:43:26;;;;;;;37.03;9.23;;;;;;;-0.83;77.86;98893.48;123484;1102;64953;-90
2021/03/22 00:45:56;;;;;;;20.55;7.10;;;;;;;-0.83;77.93;98875.13;123532;1105;65043;-89
2021/03/22 00:48:24;;;;;;;14.70;7.00;;;;;;;-0.77;78.20;98873.21;123860;1102;64860;-87
2021/03/22 00:50:51;;;;;;;21.80;7.05;;;;;;;-0.77;77.54;98871.45;123867;1102;64914;-87
2021/03/22 00:53:18;;;;;;;22.00;6.67;;;;;;;-0.76;77.27;98880.17;123863;1102;64913;-85
2021/03/22 00:55:45;;;;;;;16.70;6.20;;;;;;;-0.76;77.18;98877.55;123790;1102;64956;-92
2021/03/22 00:58:12;;;;;;;16.80;5.97;;;;;;;-0.76;78.16;98867.06;123464;1105;64925;-88
2021/03/22 01:00:45;;;;;;;13.03;5.53;;;;;;;-0.75;78.01;98877.52;123788;1102;64940;-87
2021/03/22 01:03:15;;;;;;;12.63;5.00;;;;;;;-0.73;77.65;98880.09;123754;1102;64924;-86
2021/03/22 01:05:42;;;;;;;12.97;5.03;;;;;;;-0.73;76.66;98887.96;123477;1105;64991;-89
2021/03/22 01:08:09;;;;;;;13.03;5.60;;;;;;;-0.73;77.76;98885.34;123791;1102;64957;-86
2021/03/22 01:10:41;;;;;;;17.83;7.03;;;;;;;-0.69;76.66;98889.61;123505;1102;65006;-91
2021/03/22 01:13:15;;;;;;;19.07;5.97;;;;;;;-0.71;76.50;98886.14;123846;1102;65030;-88
2021/03/22 01:15:41;;;;;;;24.03;6.00;;;;;;;-0.75;77.63;98884.53;123840;1102;64898;-90
2021/03/22 01:18:09;;;;;;;19.03;5.77;;;;;;;-0.73;76.92;98885.34;123790;1102;64921;-85
2021/03/22 01:20:41;;;;;;;13.13;5.73;;;;;;;-0.70;76.83;98880.87;123834;1102;65298;-87
2021/03/22 01:23:07;;;;;;;11.83;5.80;;;;;;;-0.68;76.90;98881.69;123854;1102;64905;-88
2021/03/22 01:25:36;;;;;;;9.30;4.80;;;;;;;-0.65;76.79;98884.20;123478;1102;64962;-89
2021/03/22 01:28:03;;;;;;;11.57;4.63;;;;;;;-0.63;76.85;98884.17;123831;1102;65020;-87
2021/03/22 01:30:37;;;;;;;17.13;5.57;;;;;;;-0.67;76.70;98878.15;123784;1102;64959;-89
2021/03/22 01:33:08;;;;;;;9.87;3.47;;;;;;;-0.68;77.17;98875.58;123841;1102;64949;-87
2021/03/22 01:35:34;;;;;;;14.60;4.67;;;;;;;-0.72;77.45;98869.55;123832;1102;64923;-87
2021/03/22 01:38:02;;;;;;;10.47;4.30;;;;;;;-0.75;76.68;98874.05;123781;1102;64939;-89
2021/03/22 01:40:40;;;;;;;15.20;4.60;;;;;;;-0.78;76.81;98869.73;123722;1102;64898;-89
2021/03/22 01:43:25;;;;;;;10.87;4.33;;;;;;;-0.78;76.62;98868.88;123867;1102;65093;-91
2021/03/22 01:45:51;;;;;;;13.60;4.40;;;;;;;-0.81;77.01;98861.97;123816;1102;64959;-88
2021/03/22 01:48:18;;;;;;;17.50;4.47;;;;;;;-0.82;76.97;98861.12;123821;1102;64914;-87
2021/03/22 01:50:44;;;;;;;9.63;3.43;;;;;;;-0.82;77.45;98868.13;123813;1102;64921;-88
2021/03/22 01:53:11;;;;;;;11.53;3.97;;;;;;;-0.78;76.77;98864.48;123860;1102;64940;-86
2021/03/22 01:55:38;;;;;;;11.80;4.00;;;;;;;-0.79;77.24;98864.55;123776;1101;65164;-87
2021/03/22 01:58:04;;;;;;;13.80;4.63;;;;;;;-0.85;76.87;98858.57;123826;1102;64912;-87
2021/03/22 02:00:34;;;;;;;9.77;4.17;;;;;;;-0.88;77.25;98858.67;123856;1102;64930;-88
2021/03/22 02:03:09;;;;;;;8.10;3.93;;;;;;;-0.87;76.66;98864.77;123921;1102;64880;-88
2021/03/22 02:05:40;;;;;;;10.50;4.20;;;;;;;-0.85;77.48;98858.57;123842;1102;65226;-92
2021/03/22 02:08:17;;;;;;;9.60;3.80;;;;;;;-0.86;76.37;98851.61;123869;1102;64991;-86
2021/03/22 02:10:45;;;;;;;11.25;4.65;;;;;;;-0.92;76.92;98849.17;123497;1102;65228;-91
2021/03/22 02:13:24;;;;;;;11.77;3.87;;;;;;;-0.95;77.10;98845.80;123790;1102;64990;-89
2021/03/22 02:16:07;;;;;;;9.37;3.70;;;;;;;-0.95;76.46;98841.41;123569;1102;64930;-88
2021/03/22 02:19:20;;;;;;;9.47;3.53;;;;;;;-0.87;76.91;98834.17;123891;1101;64899;-89
2021/03/22 02:22:01;;;;;;;11.60;4.25;;;;;;;-0.87;76.45;98835.94;123873;1102;64838;-87
2021/03/22 02:24:47;;;;;;;9.83;4.43;;;;;;;-0.87;77.08;98843.80;123959;1102;65320;-87
2021/03/22 02:27:46;;;;;;;9.87;3.70;;;;;;;-0.90;76.53;98842.11;123832;1102;64994;-88
2021/03/22 02:30:50;;;;;;;6.20;2.97;;;;;;;-0.95;76.76;98846.66;123457;1105;65017;-88
2021/03/22 02:33:47;;;;;;;8.30;3.87;;;;;;;-0.99;76.17;98850.25;123384;1105;65004;-92
2021/03/22 02:36:20;;;;;;;12.67;3.87;;;;;;;-0.98;76.95;98846.72;123395;1105;65141;-87
2021/03/22 02:38:56;;;;;;;7.45;3.25;;;;;;;-0.93;77.23;98850.08;123398;1105;64946;-88
2021/03/22 02:41:49;;;;;;;10.60;3.63;;;;;;;-0.93;76.59;98849.22;123427;1106;64989;-89
2021/03/22 02:44:18;;;;;;;8.67;3.43;;;;;;;-0.96;77.40;98858.02;123482;1105;65357;-90
2021/03/22 02:46:44;;;;;;;10.27;3.40;;;;;;;-0.92;77.40;98851.79;123398;1105;64943;-91
2021/03/22 02:49:15;;;;;;;10.43;4.00;;;;;;;-0.88;77.30;98855.20;123379;1105;64984;-89
2021/03/22 02:52:08;;;;;;;10.40;3.60;;;;;;;-0.84;76.72;98855.03;123404;1105;65074;-87
2021/03/22 02:54:51;;;;;;;9.77;3.67;;;;;;;-0.78;76.47;98848.75;123375;1106;64978;-92
2021/03/22 02:57:44;;;;;;;9.27;3.50;;;;;;;-0.72;76.36;98858.21;123398;1105;65048;-88
2021/03/22 03:00:26;;;;;;;10.10;3.50;;;;;;;-0.70;77.05;98861.63;123269;1105;64880;-88
2021/03/22 03:03:04;;;;;;;9.25;3.60;;;;;;;-0.71;76.63;98867.79;123322;1105;65109;-87
2021/03/22 03:05:33;;;;;;;11.20;4.07;;;;;;;-0.70;76.25;98866.88;123158;1106;64928;-89
2021/03/22 03:08:09;;;;;;;7.80;3.15;;;;;;;-0.64;77.23;98864.08;123703;1102;64962;-87
2021/03/22 03:10:36;;;;;;;14.00;3.40;;;;;;;-0.63;77.04;98868.44;123850;1102;65026;-92
2021/03/22 03:13:03;;;;;;;8.70;3.43;;;;;;;-0.66;76.31;98874.62;123549;1102;64886;-89
2021/03/22 03:15:29;;;;;;;9.63;3.43;;;;;;;-0.69;76.98;98869.48;123843;1102;64957;-88
2021/03/22 03:17:56;;;;;;;7.03;3.10;;;;;;;-0.69;76.51;98873.87;123842;1102;64931;-89
2021/03/22 03:20:29;;;;;;;9.63;3.67;;;;;;;-0.66;76.79;98872.00;123881;1102;65004;-89
2021/03/22 03:22:57;;;;;;;7.73;3.60;;;;;;;-0.63;77.21;98871.92;123812;1102;65323;-87
2021/03/22 03:25:25;;;;;;;10.47;3.60;;;;;;;-0.60;76.03;98876.20;123504;1102;64898;-92
2021/03/22 03:27:52;;;;;;;7.80;3.65;;;;;;;-0.63;77.45;98878.94;123851;1102;64894;-89
2021/03/22 03:30:24;;;;;;;11.20;3.77;;;;;;;-0.67;76.29;98875.53;123911;1102;64912;-87
2021/03/22 03:32:50;;;;;;;9.40;3.33;;;;;;;-0.71;76.27;98875.66;123542;1102;64835;-92
2021/03/22 03:35:19;;;;;;;9.43;3.83;;;;;;;-0.75;77.13;98876.67;123910;1102;65026;-87
2021/03/22 03:37:46;;;;;;;10.27;3.77;;;;;;;-0.75;76.59;98879.29;123903;1102;64958;-87
2021/03/22 03:40:27;;;;;;;10.90;4.03;;;;;;;-0.80;76.39;98870.70;123549;1102;65007;-87
2021/03/22 03:42:53;;;;;;;11.77;4.13;;;;;;;-0.86;76.61;98876.97;123474;1102;64901;-89
2021/03/22 03:45:21;;;;;;;12.30;4.77;;;;;;;-0.95;76.77;98872.86;123836;1102;65124;-87
2021/03/22 03:47:48;;;;;;;10.33;4.40;;;;;;;-1.00;76.34;98874.75;123920;1102;64894;-86
2021/03/22 03:50:20;;;;;;;14.40;4.43;;;;;;;-1.04;77.18;98870.48;123928;1102;64925;-86
2021/03/22 03:52:46;;;;;;;8.80;3.80;;;;;;;-1.07;76.70;98878.45;123911;1102;65258;-92
2021/03/22 03:55:15;;;;;;;8.57;3.73;;;;;;;-1.09;76.98;98882.85;123931;1102;64914;-88
2021/03/22 03:57:49;;;;;;;13.53;4.37;;;;;;;-1.05;76.24;98889.73;123944;1102;64918;-89
2021/03/22 04:00:29;;;;;;;10.30;4.40;;;;;;;-1.03;76.38;98880.06;123892;1102;64940;-89
2021/03/22 04:02:57;;;;;;;8.03;3.67;;;;;;;-0.96;77.41;98884.22;123826;1102;64966;-91
2021/03/22 04:05:26;;;;;;;6.87;3.40;;;;;;;-0.92;76.06;98883.25;123859;1102;64918;-87
2021/03/22 04:07:53;;;;;;;12.90;4.10;;;;;;;-0.90;76.86;98889.30;123921;1102;64907;-89
2021/03/22 04:10:19;;;;;;;10.30;4.27;;;;;;;-0.93;76.39;98892.02;123869;1102;64987;-88
2021/03/22 04:12:46;;;;;;;9.10;3.70;;;;;;;-0.99;76.08;98892.19;123877;1102;64894;-88
2021/03/22 04:15:15;;;;;;;8.90;3.20;;;;;;;-1.03;76.89;98898.41;123866;1102;65001;-91
2021/03/22 04:17:43;;;;;;;12.03;4.03;;;;;;;-1.05;77.17;98902.84;123472;1102;64924;-89
2021/03/22 04:20:11;;;;;;;10.20;4.65;;;;;;;-1.07;77.18;98911.66;123859;1102;64923;-88
2021/03/22 04:22:37;;;;;;;12.65;4.10;;;;;;;-1.08;76.04;98913.42;123576;1102;64899;-88
2021/03/22 04:25:04;;;;;;;14.85;4.70;;;;;;;-1.06;77.27;98906.38;123505;1102;64911;-92
2021/03/22 04:27:30;;;;;;;12.97;4.40;;;;;;;-1.07;76.56;98899.42;123877;1102;65001;-89
2021/03/22 04:29:57;;;;;;;11.57;4.97;;;;;;;-1.07;76.88;98902.04;123501;1102;65007;-91
2021/03/22 04:32:23;;;;;;;13.50;4.78;;;;;;;-1.08;76.54;98902.95;123844;1102;65356;-88
2021/03/22 04:34:50;;;;;;;13.10;5.20;;;;;;;-1.10;77.63;98912.59;123819;1102;64869;-91
2021/03/22 04:37:16;;;;;;;11.03;4.60;;;;;;;-1.09;77.12;98909.91;123887;1102;65004;-87
2021/03/22 04:39:43;;;;;;;12.53;5.20;;;;;;;-1.07;77.08;98909.90;123548;1102;64940;-90
2021/03/22 04:42:10;;;;;;;12.90;5.40;;;;;;;-1.05;77.05;98908.09;123873;1102;65237;-88
2021/03/22 04:44:36;;;;;;;12.97;5.30;;;;;;;-1.03;76.11;98911.52;123848;1102;64979;-90
2021/03/22 04:47:03;;;;;;;12.75;5.22;;;;;;;-1.03;76.20;98919.37;123487;1102;64921;-87
2021/03/22 04:49:29;;;;;;;13.65;5.35;;;;;;;-1.03;76.63;98921.14;123791;1102;64885;-87
2021/03/22 04:51:55;;;;;;;8.63;4.43;;;;;;;-1.04;77.12;98922.05;123821;1102;65450;-90
2021/03/22 04:54:22;;;;;;;14.13;5.30;;;;;;;-1.02;76.82;98920.23;123838;1102;64982;-86
2021/03/22 04:56:48;;;;;;;18.30;6.03;;;;;;;-1.00;76.39;98921.07;124178;1102;64899;-87
2021/03/22 04:59:14;;;;;;;13.83;5.80;;;;;;;-1.02;77.08;98918.47;123851;1101;64885;-90
2021/03/22 05:01:41;;;;;;;14.30;4.50;;;;;;;-1.01;76.95;98912.35;123834;1102;65003;-87
2021/03/22 05:04:07;;;;;;;10.80;5.17;;;;;;;-0.99;76.43;98910.53;124157;1102;65004;-88
2021/03/22 05:06:34;;;;;;;15.77;4.60;;;;;;;-0.96;77.16;98902.58;123844;1102;64992;-86
2021/03/22 05:09:00;;;;;;;11.87;4.90;;;;;;;-0.92;76.57;98917.33;123904;1102;65287;-87
2021/03/22 05:11:27;;;;;;;11.03;4.55;;;;;;;-0.87;77.24;98914.58;123881;1102;65040;-87
2021/03/22 05:13:54;;;;;;;14.05;4.90;;;;;;;-0.85;76.63;98911.00;123872;1102;64918;-87
2021/03/22 05:16:21;;;;;;;12.25;4.97;;;;;;;-0.81;76.78;98911.79;123499;1102;64924;-88
2021/03/22 05:18:48;;;;;;;18.70;5.30;;;;;;;-0.76;77.06;98919.50;123864;1102;64936;-88
2021/03/22 05:21:14;;;;;;;12.30;4.27;;;;;;;-0.69;76.96;98926.31;123859;1102;64947;-90
2021/03/22 05:23:41;;;;;;;9.87;4.50;;;;;;;-0.66;76.16;98927.07;123874;1101;65328;-86
2021/03/22 05:26:10;;;;;;;10.50;4.60;;;;;;;-0.59;76.61;98930.38;124281;1102;65033;-85
2021/03/22 05:28:40;;;;;;;16.60;6.10;;;;;;;-0.54;76.56;98925.86;123787;1102;64891;-86
2021/03/22 05:31:08;;;;;;;10.43;4.77;;;;;;;-0.48;76.42;98933.55;123725;1102;65107;-87
2021/03/22 05:33:35;;;;;;;10.75;4.40;;;;;;;-0.45;76.39;98929.97;123846;1102;64895;-87
2021/03/22 05:36:02;;;;;;;13.60;5.20;;;;;;;-0.39;76.38;98943.76;123837;1102;65291;-89
2021/03/22 05:38:30;;;;;;;11.97;4.70;;;;;;;-0.36;76.70;98940.20;123554;1102;64979;-88
2021/03/22 05:41:03;;;;;;;13.00;4.40;;;;;;;-0.33;75.82;98945.34;123847;1102;64908;-91
2021/03/22 05:43:42;;;;;;;11.30;4.67;;;;;;;-0.29;76.29;98936.48;123894;1102;65001;-87
2021/03/22 05:46:15;;;;;;;11.40;4.50;;;;;;;-0.25;76.57;98934.61;123902;1102;64844;-87
2021/03/22 05:48:44;;;;;;;14.67;5.73;;;;;;;-0.19;76.19;98932.69;123860;1102;64923;-89
2021/03/22 05:51:42;;;;;;;12.67;4.73;;;;;;;-0.13;76.10;98936.86;123899;1102;66115;-89
2021/03/22 05:54:33;;;;;;;8.07;4.07;;;;;;;-0.10;75.62;98937.64;123912;1102;64909;-87
2021/03/22 05:56:59;;;;;;;11.37;4.77;;;;;;;-0.07;76.26;98941.92;123818;1101;64917;-84
2021/03/22 05:59:53;;;;;;;12.77;4.90;;;;;;;-0.08;76.12;98937.59;123896;1102;65001;-92
2021/03/22 06:02:33;;;;;;;16.40;5.25;;;;;;;-0.07;76.45;98937.53;123867;1102;64831;-86
2021/03/22 06:05:09;;;;;;;12.63;4.63;;;;;;;-0.06;76.36;98947.16;123860;1102;64838;-87
2021/03/22 06:07:43;;;;;;;12.43;4.30;;;;;;;-0.04;76.31;98947.09;123862;1102;64892;-88
2021/03/22 06:10:16;;;;;;;13.20;6.37;;;;;;;-0.04;76.52;98941.84;123958;1102;64866;-87
2021/03/22 06:12:53;;;;;;;16.97;5.73;;;;;;;0.01;75.65;98939.94;123883;1102;65333;-88
2021/03/22 06:15:32;;;;;;;11.33;4.90;;;;;;;0.08;76.58;98946.72;123857;1102;64949;-87
2021/03/22 06:18:12;;;;;;;8.83;4.40;;;;;;;0.19;76.67;98948.98;123910;1102;64895;-89
2021/03/22 06:20:40;;;;;;;14.40;4.30;;;;;;;0.35;76.23;98946.73;123885;1102;64933;-87
2021/03/22 06:23:17;;;;;;;12.60;4.70;;;;;;;0.49;75.64;98957.64;123840;1102;65524;-88
2021/03/22 06:25:43;;;;;;;9.77;3.70;;;;;;;0.62;75.11;98953.70;123861;1102;65000;-91
2021/03/22 06:28:19;;;;;;;15.30;4.53;;;;;;;0.71;75.19;98952.55;123829;1102;64898;-88
2021/03/22 06:31:03;;;;;;;6.90;3.40;;;;;;;0.87;74.88;98963.39;123869;1102;64899;-90
2021/03/22 06:33:36;;;;;;;4.80;2.47;;;;;;;0.97;75.93;98964.80;123848;1102;64915;-88
2021/03/22 06:36:04;;;;;;;11.43;4.20;;;;;;;1.03;75.28;98957.55;124179;1102;64950;-86
2021/03/22 06:38:31;;;;;;;7.80;2.93;;;;;;;1.07;75.26;98958.28;123834;1102;64911;-85
2021/03/22 06:40:58;;;;;;;12.60;3.20;;;;;;;1.09;75.07;98967.00;123854;1102;64911;-89
2021/03/22 06:43:25;;;;;;;13.43;5.20;;;;;;;1.14;74.70;98957.16;123896;1102;64946;-88
2021/03/22 06:46:04;;;;;;;9.97;4.70;;;;;;;1.17;74.77;98971.98;123823;1102;65377;-88
2021/03/22 06:48:34;;;;;;;10.63;4.33;;;;;;;1.23;75.05;98964.73;123807;1102;64898;-90
2021/03/22 06:51:00;;;;;;;12.50;4.50;;;;;;;1.28;74.89;98970.70;123885;1102;64920;-89
2021/03/22 06:53:48;;;;;;;14.43;5.57;;;;;;;1.35;74.29;98985.34;123888;1102;64892;-88
2021/03/22 06:56:28;;;;;;;10.53;3.83;;;;;;;1.41;74.61;98978.15;123934;1102;64914;-90
2021/03/22 06:59:08;;;;;;;13.40;5.13;;;;;;;1.45;74.47;98979.73;124157;1102;65023;-87
2021/03/22 07:01:36;;;;;;;12.67;6.50;;;;;;;1.49;74.72;98986.62;123850;1102;64997;-87
2021/03/22 07:04:20;;;;;;;8.80;3.50;;;;;;;1.54;74.73;98989.95;123816;1101;65026;-87
2021/03/22 07:07:10;;;;;;;6.35;3.40;;;;;;;1.57;74.14;98992.45;123840;1102;65042;-87
2021/03/22 07:09:58;;;;;;;11.57;2.97;;;;;;;1.66;74.80;98994.77;123778;1102;64913;-87
2021/03/22 07:12:30;;;;;;;11.70;4.97;;;;;;;1.71;74.29;99010.36;123876;1102;64911;-87
2021/03/22 07:15:23;;;;;;;9.30;4.67;;;;;;;1.81;74.87;99001.22;123862;1101;64988;-88
2021/03/22 07:18:12;;;;;;;12.67;3.90;;;;;;;1.89;73.65;99002.64;123987;1102;64838;-85
2021/03/22 07:20:41;;;;;;;14.57;5.10;;;;;;;1.85;74.04;99001.06;123854;1102;65019;-85
2021/03/22 07:23:07;;;;;;;19.67;6.40;;;;;;;1.88;74.67;99008.83;123572;1102;65268;-88
2021/03/22 07:25:45;;;;;;;17.83;5.73;;;;;;;1.88;73.29;99008.83;123878;1102;64879;-85
2021/03/22 07:28:41;;;;;;;11.10;4.53;;;;;;;1.91;73.82;99007.88;123846;1102;65005;-90
2021/03/22 07:31:42;;;;;;;12.67;3.90;;;;;;;1.93;73.96;99013.93;123830;1102;64899;-89
2021/03/22 07:34:27;;;;;;;12.90;4.85;;;;;;;1.98;73.59;99008.50;123868;1100;64946;-85
2021/03/22 07:37:28;;;;;;;13.97;5.03;;;;;;;2.06;73.45;99022.22;123835;1102;65000;-85
2021/03/22 07:40:06;;;;;;;10.60;3.90;;;;;;;2.11;73.71;99028.18;123911;1102;64909;-87
2021/03/22 07:42:56;;;;;;;11.63;5.30;;;;;;;2.13;73.08;99028.97;123769;1102;65013;-86
2021/03/22 07:46:15;;;;;;;13.27;6.60;;;;;;;2.18;73.60;99032.30;123825;1102;64905;-84
2021/03/22 07:48:50;;;;;;;13.17;5.30;;;;;;;2.23;73.86;99026.83;123711;1105;65113;-84
2021/03/22 07:51:44;;;;;;;19.27;10.33;;;;;;;2.27;73.51;99033.70;123449;1105;64877;-86
2021/03/22 07:54:28;;;;;;;29.30;13.40;;;;;;;2.43;73.69;99025.15;123438;1105;65045;-86
2021/03/22 07:57:07;;;;;;;29.63;12.57;;;;;;;2.48;73.10;99016.18;123435;1105;64962;-86
2021/03/22 07:59:51;;;;;;;25.73;11.13;;;;;;;2.50;73.67;99019.63;123325;1105;65029;-85
2021/03/22 08:02:30;;;;;;;29.80;10.85;;;;;;;2.57;73.34;99021.95;123345;1105;64921;-85
2021/03/22 08:05:16;;;;;;;21.95;7.55;;;;;;;2.69;73.34;99028.52;123395;1105;65000;-89
2021/03/22 08:07:55;;;;;;;17.05;6.90;;;;;;;2.79;73.26;99026.35;123356;1105;65141;-87
2021/03/22 08:10:45;;;;;;;14.47;4.90;;;;;;;2.86;72.55;99023.42;123307;1105;65312;-85
2021/03/22 08:13:36;;;;;;;12.33;4.97;;;;;;;2.90;73.04;99035.55;123344;1105;64981;-83
2021/03/22 08:16:29;;;;;;;10.10;3.50;;;;;;;3.01;72.90;99023.70;123425;1105;64988;-84
2021/03/22 08:19:01;;;;;;;14.27;5.17;;;;;;;3.11;72.96;99027.65;123673;1105;64943;-84
2021/03/22 08:21:54;;;;;;;11.27;4.17;;;;;;;3.18;73.03;99029.10;123790;1102;65353;-89
2021/03/22 08:24:43;;;;;;;15.67;4.13;;;;;;;3.18;72.79;99037.02;123770;1102;65054;-84
2021/03/22 08:27:18;;;;;;;12.05;4.45;;;;;;;3.16;72.56;99037.09;123901;1101;64915;-86
2021/03/22 08:30:08;;;;;;;13.97;5.10;;;;;;;3.22;72.23;99028.91;123865;1102;64998;-85
2021/03/22 08:33:00;;;;;;;11.17;4.63;;;;;;;3.22;72.98;99034.19;123869;1100;64929;-83
2021/03/22 08:35:46;;;;;;;9.97;4.37;;;;;;;3.36;71.80;99036.23;123898;1102;64950;-86
2021/03/22 08:38:16;;;;;;;10.50;3.93;;;;;;;3.36;71.04;99038.88;123879;1102;65360;-85
2021/03/22 08:40:57;;;;;;;15.00;5.33;;;;;;;3.34;71.84;99047.80;123478;1102;64988;-84
2021/03/22 08:43:55;;;;;;;15.70;5.23;;;;;;;3.38;72.43;99047.61;123715;1102;64899;-84
2021/03/22 08:46:51;;;;;;;11.80;4.50;;;;;;;3.45;71.20;99051.70;123870;1102;64959;-84
2021/03/22 08:49:39;;;;;;;10.93;4.50;;;;;;;3.48;71.63;99050.69;123885;1102;65244;-85
2021/03/22 08:52:06;;;;;;;12.33;4.37;;;;;;;3.54;71.50;99063.63;123870;1103;64997;-86
2021/03/22 08:54:35;;;;;;;15.03;6.03;;;;;;;3.54;72.12;99060.98;123832;1102;64985;-87
2021/03/22 08:57:18;;;;;;;12.67;3.97;;;;;;;3.44;71.76;99072.89;123885;1102;64895;-85
2021/03/22 08:59:45;;;;;;;11.40;3.97;;;;;;;3.18;72.56;99069.57;123826;1101;64901;-87
2021/03/22 09:02:25;;;;;;;9.70;3.90;;;;;;;3.00;73.01;99066.84;123884;1102;64915;-85
2021/03/22 09:04:55;;;;;;;9.83;3.37;;;;;;;3.12;73.14;99072.47;123801;1102;64933;-86
2021/03/22 09:07:27;;;;;;;14.70;5.05;;;;;;;3.26;73.52;99069.24;123879;1102;65367;-86
2021/03/22 09:10:37;;;;;;;13.35;3.70;;;;;;;3.41;72.97;99070.36;123863;1102;65388;-87
2021/03/22 09:13:29;;;;;;;10.57;4.90;;;;;;;3.50;72.83;99069.98;123865;1102;64853;-85
2021/03/22 09:16:34;;;;;;;10.63;4.37;;;;;;;3.58;71.96;99061.73;123810;1102;64892;-87
2021/03/22 09:19:06;;;;;;;17.43;4.60;;;;;;;3.70;73.26;99067.33;123949;1100;65074;-84
2021/03/22 09:21:32;;;;;;;10.60;4.35;;;;;;;3.93;71.62;99053.08;123885;1102;64898;-82
2021/03/22 09:23:59;;;;;;;12.03;3.83;;;;;;;4.08;72.22;99072.69;123888;1102;64898;-83
2021/03/22 09:26:54;;;;;;;11.70;4.53;;;;;;;4.22;72.50;99072.05;123872;1102;64902;-84
2021/03/22 09:29:30;;;;;;;13.90;4.70;;;;;;;4.28;72.50;99069.13;124073;1102;64984;-83
2021/03/22 09:32:00;;;;;;;12.90;4.60;;;;;;;4.47;73.49;99080.56;123722;1102;65071;-81
2021/03/22 09:34:37;;;;;;;9.03;3.73;;;;;;;4.67;72.65;99073.47;123741;1102;64969;-86
2021/03/22 09:37:43;;;;;;;11.40;3.73;;;;;;;4.87;72.66;99068.92;123825;1102;64943;-81
2021/03/22 09:40:33;;;;;;;6.45;3.05;;;;;;;4.84;72.14;99071.73;123938;1102;65007;-82
2021/03/22 09:43:08;;;;;;;6.87;3.10;;;;;;;4.83;70.52;99074.43;124019;1102;64915;-82
2021/03/22 09:45:51;;;;;;;7.37;3.60;;;;;;;4.91;71.33;99082.02;123894;1102;65094;-83
2021/03/22 09:48:24;;;;;;;6.20;3.30;;;;;;;5.07;72.16;99067.09;123836;1102;64950;-81
2021/03/22 09:51:00;;;;;;;8.50;3.53;;;;;;;5.26;72.32;99070.53;123799;1102;64997;-82
2021/03/22 09:53:50;;;;;;;8.60;2.70;;;;;;;5.40;70.85;99077.77;123755;1102;65304;-82
2021/03/22 09:56:35;;;;;;;11.33;3.33;;;;;;;5.43;71.15;99059.95;123701;1101;65055;-82
2021/03/22 09:59:30;;;;;;;9.23;4.20;;;;;;;5.57;72.22;99064.53;123442;1102;64984;-82
2021/03/22 10:01:59;;;;;;;7.33;3.23;;;;;;;5.73;70.62;99077.86;123759;1102;65004;-84
2021/03/22 10:04:33;;;;;;;6.60;3.17;;;;;;;5.62;70.28;99067.81;123763;1102;64934;-85
2021/03/22 10:07:09;;;;;;;6.30;2.97;;;;;;;5.77;71.33;99065.29;123821;1102;64867;-81
2021/03/22 10:10:00;;;;;;;8.65;3.35;;;;;;;5.89;70.21;99069.95;123729;1102;64899;-82
2021/03/22 10:12:32;;;;;;;7.00;3.37;;;;;;;5.99;71.38;99071.22;123732;1102;64969;-81
2021/03/22 10:15:17;;;;;;;9.93;3.35;;;;;;;6.18;70.79;99066.64;123917;1100;64841;-84
2021/03/22 10:17:56;;;;;;;9.50;3.60;;;;;;;6.14;70.38;99075.69;123899;1102;64907;-81
2021/03/22 10:20:36;;;;;;;11.97;3.70;;;;;;;5.84;71.08;99082.58;123683;1102;64950;-79
2021/03/22 10:23:15;;;;;;;6.83;3.13;;;;;;;5.67;70.60;99083.48;123597;1102;64907;-83
2021/03/22 10:25:47;;;;;;;8.00;3.90;;;;;;;5.61;70.37;99075.84;123725;1102;65007;-81
2021/03/22 10:28:23;;;;;;;12.63;3.93;;;;;;;5.69;70.81;99071.00;123540;1102;64949;-81
2021/03/22 10:31:04;;;;;;;8.83;3.97;;;;;;;5.93;70.93;99066.24;123716;1102;64914;-82
2021/03/22 10:33:31;;;;;;;11.63;4.10;;;;;;;6.35;71.07;99062.20;123776;1102;65090;-84
2021/03/22 10:36:01;;;;;;;7.53;3.10;;;;;;;6.68;71.63;99065.66;123405;1102;64898;-87
2021/03/22 10:38:37;;;;;;;10.83;3.83;;;;;;;6.93;68.79;99062.45;123973;1102;64925;-84
2021/03/22 10:41:25;;;;;;;7.17;3.93;;;;;;;6.97;69.70;99069.31;123880;1102;64834;-83
2021/03/22 10:43:57;;;;;;;13.07;4.30;;;;;;;7.55;70.27;99065.05;123938;1102;64994;-84
2021/03/22 10:46:28;;;;;;;7.63;3.10;;;;;;;7.94;68.87;99071.57;123578;1102;65868;-83
2021/03/22 10:49:22;;;;;;;10.03;3.53;;;;;;;7.76;69.17;99070.87;123931;1102;64873;-84
2021/03/22 10:51:52;;;;;;;4.83;2.30;;;;;;;7.66;68.05;99061.77;123953;1102;65413;-83
2021/03/22 10:54:22;;;;;;;7.90;2.47;;;;;;;7.72;68.62;99072.03;123964;1102;64997;-83
2021/03/22 10:56:56;;;;;;;10.23;3.27;;;;;;;7.50;68.07;99083.06;123856;1102;64908;-84
2021/03/22 10:59:29;;;;;;;31.23;16.27;;;;;;;7.26;67.91;99083.58;123961;1102;64908;-87
2021/03/22 11:02:00;;;;;;;17.10;7.33;;;;;;;7.19;68.96;99076.03;123682;1102;64950;-84
2021/03/22 11:04:32;;;;;;;85.43;43.67;;;;;;;7.05;67.66;99080.34;123852;1102;65077;-84
2021/03/22 11:07:28;;;;;;;56.87;30.10;;;;;;;6.99;66.62;99080.69;123858;1102;64911;-83
2021/03/22 11:10:15;;;;;;;38.30;18.75;;;;;;;7.17;69.46;99078.78;123894;1102;64899;-83
2021/03/22 11:12:48;;;;;;;42.67;27.80;;;;;;;7.39;68.68;99085.52;123934;1101;64921;-83
2021/03/22 11:15:30;;;;;;;10.43;7.33;;;;;;;7.47;67.84;99089.42;123899;1102;65030;-87
2021/03/22 11:17:57;;;;;;;6.35;3.15;;;;;;;7.41;65.61;99091.59;123897;1102;65065;-81
2021/03/22 11:20:25;;;;;;;6.00;2.20;;;;;;;7.39;66.99;99083.72;123882;1102;64954;-84
2021/03/22 11:22:52;;;;;;;18.80;8.85;;;;;;;7.39;67.57;99093.48;123470;1102;64912;-85
2021/03/22 11:25:32;;;;;;;6.73;2.57;;;;;;;7.33;67.22;99100.02;123794;1102;64905;-82
2021/03/22 11:28:24;;;;;;;8.93;4.27;;;;;;;7.18;68.17;99092.91;123999;1102;65365;-83
2021/03/22 11:30:54;;;;;;;46.77;8.83;;;;;;;7.08;67.59;99089.95;123834;1102;64946;-85
2021/03/22 11:33:37;;;;;;;29.17;11.67;;;;;;;6.87;64.93;99085.83;123929;1101;64985;-84
2021/03/22 11:36:21;;;;;;;89.83;30.47;;;;;;;6.81;65.90;99089.72;123809;1102;64946;-87
2021/03/22 11:38:55;;;;;;;84.17;29.57;;;;;;;7.08;64.40;99089.09;123876;1102;64923;-87
2021/03/22 11:41:50;;;;;;;62.67;19.80;;;;;;;6.90;65.99;99090.98;123796;1102;64873;-86
2021/03/22 11:44:30;;;;;;;50.50;17.15;;;;;;;6.80;64.78;99095.94;123700;1102;65224;-84
2021/03/22 11:47:29;;;;;;;41.97;11.83;;;;;;;6.77;66.56;99090.82;123831;1102;65396;-86
2021/03/22 11:49:57;;;;;;;59.00;19.70;;;;;;;7.10;65.61;99092.50;123786;1102;64986;-89
2021/03/22 11:52:29;;;;;;;31.17;12.93;;;;;;;7.00;66.29;99095.70;123513;1102;66196;-85
2021/03/22 11:55:06;;;;;;;8.23;3.47;;;;;;;6.93;66.54;99090.80;123852;1101;64924;-91
2021/03/22 11:57:49;;;;;;;16.53;7.13;;;;;;;7.09;66.42;99094.31;123900;1102;64864;-88
2021/03/22 12:00:22;;;;;;;30.17;12.03;;;;;;;7.64;65.51;99092.91;123802;1102;64898;-85